createdAt,value
2022-12-08T00:01:48.904Z,20.90
2022-12-08T00:04:18.203Z,22.95
2022-12-08T00:07:04.505Z,22.42
2022-12-08T00:09:39.489Z,22.60
2022-12-08T00:12:11.925Z,18.65
2022-12-08T00:14:42.433Z,23.85
2022-12-08T00:17:13.620Z,19.98
2022-12-08T00:19:51.684Z,21.38
2022-12-08T00:22:20.781Z,23.23
2022-12-08T00:24:49.698Z,21.35
2022-12-08T00:27:20.969Z,24.95
2022-12-08T00:29:50.432Z,26.20
2022-12-08T00:32:20.742Z,20.33
2022-12-08T00:34:50.145Z,21.95
2022-12-08T00:37:19.382Z,24.20
2022-12-08T00:39:51.401Z,22.90
2022-12-08T00:42:25.211Z,22.08
2022-12-08T00:44:54.712Z,26.15
2022-12-08T00:47:26.879Z,22.45
2022-12-08T00:50:01.221Z,25.63
2022-12-08T00:52:31.423Z,27.83
2022-12-08T00:55:04.818Z,28.75
2022-12-08T00:57:40.035Z,22.33
2022-12-08T01:00:12.834Z,27.85
2022-12-08T01:02:43.890Z,24.77
2022-12-08T01:05:15.740Z,22.98
2022-12-08T01:07:49.179Z,26.73
2022-12-08T01:10:24.178Z,29.65
2022-12-08T01:12:54.494Z,25.10
2022-12-08T01:15:33.410Z,27.33
2022-12-08T01:18:02.684Z,25.42
2022-12-08T01:20:31.277Z,24.25
2022-12-08T01:23:00.242Z,23.40
2022-12-08T01:25:35.732Z,25.80
2022-12-08T01:28:07.303Z,25.17
2022-12-08T01:30:47.257Z,25.92
2022-12-08T01:33:22.068Z,28.58
2022-12-08T01:35:51.257Z,28.73
2022-12-08T01:38:20.259Z,24.50
2022-12-08T01:40:49.148Z,28.02
2022-12-08T01:43:21.225Z,32.17
2022-12-08T01:45:51.495Z,25.83
2022-12-08T01:48:27.500Z,29.60
2022-12-08T01:51:01.311Z,32.53
2022-12-08T01:53:34.516Z,28.90
2022-12-08T01:56:12.399Z,26.50
2022-12-08T01:58:49.475Z,23.40
2022-12-08T02:01:19.669Z,26.17
2022-12-08T02:03:56.078Z,27.83
2022-12-08T02:06:32.344Z,27.73
2022-12-08T02:09:09.491Z,28.15
2022-12-08T02:11:47.394Z,26.15
2022-12-08T02:16:56.959Z,26.13
2022-12-08T02:20:09.067Z,26.83
2022-12-08T02:22:49.225Z,23.75
2022-12-08T02:25:25.836Z,20.58
2022-12-08T02:28:07.554Z,24.80
2022-12-08T02:30:52.004Z,23.25
2022-12-08T02:33:53.594Z,22.58
2022-12-08T02:36:26.663Z,20.67
2022-12-08T02:39:06.128Z,22.25
2022-12-08T02:41:48.329Z,20.20
2022-12-08T02:44:25.620Z,23.13
2022-12-08T02:46:58.527Z,19.60
2022-12-08T02:49:31.346Z,17.83
2022-12-08T02:52:07.428Z,19.90
2022-12-08T02:54:37.204Z,22.20
2022-12-08T02:57:29.291Z,21.58
2022-12-08T03:00:06.008Z,15.68
2022-12-08T03:02:48.343Z,24.10
2022-12-08T03:05:30.492Z,17.75
2022-12-08T03:08:03.738Z,21.38
2022-12-08T03:10:36.451Z,23.13
2022-12-08T03:13:10.302Z,19.48
2022-12-08T03:15:39.778Z,15.35
2022-12-08T03:18:11.728Z,16.02
2022-12-08T03:20:43.417Z,20.73
2022-12-08T03:23:15.592Z,24.05
2022-12-08T03:25:50.511Z,17.25
2022-12-08T03:28:18.638Z,18.08
2022-12-08T03:30:50.785Z,18.33
2022-12-08T03:33:24.099Z,22.65
2022-12-08T03:35:54.629Z,19.67
2022-12-08T03:38:23.592Z,17.23
2022-12-08T03:41:05.549Z,19.05
2022-12-08T03:43:33.525Z,19.10
2022-12-08T03:46:01.540Z,19.55
2022-12-08T03:48:29.631Z,17.83
2022-12-08T03:50:58.858Z,21.20
2022-12-08T03:53:26.822Z,17.65
2022-12-08T03:55:55.063Z,22.25
2022-12-08T03:58:23.005Z,17.55
2022-12-08T04:00:50.895Z,16.38
2022-12-08T04:03:18.882Z,20.58
2022-12-08T04:05:47.339Z,17.40
2022-12-08T04:08:16.666Z,20.92
2022-12-08T04:10:44.609Z,19.23
2022-12-08T04:13:12.515Z,22.42
2022-12-08T04:15:40.438Z,19.40
2022-12-08T04:18:08.404Z,16.58
2022-12-08T04:20:40.240Z,20.00
2022-12-08T04:23:08.249Z,18.50
2022-12-08T04:25:38.502Z,17.27
2022-12-08T04:28:07.230Z,15.10
2022-12-08T04:30:35.526Z,18.20
2022-12-08T04:33:03.437Z,19.67
2022-12-08T04:35:31.517Z,18.13
2022-12-08T04:37:59.475Z,16.63
2022-12-08T04:40:27.415Z,20.48
2022-12-08T04:42:56.674Z,21.27
2022-12-08T04:45:24.570Z,18.77
2022-12-08T04:47:52.545Z,17.40
2022-12-08T04:50:20.741Z,19.55
2022-12-08T04:52:48.710Z,17.35
2022-12-08T04:55:16.732Z,16.10
2022-12-08T04:57:44.661Z,15.30
2022-12-08T05:00:15.148Z,13.98
2022-12-08T05:02:43.168Z,16.80
2022-12-08T05:05:11.339Z,18.17
2022-12-08T05:07:39.349Z,14.45
2022-12-08T05:10:08.739Z,16.67
2022-12-08T05:12:36.731Z,16.50
2022-12-08T05:15:05.384Z,19.17
2022-12-08T05:17:38.165Z,17.10
2022-12-08T05:20:10.750Z,18.23
2022-12-08T05:22:42.628Z,16.23
2022-12-08T05:25:11.314Z,19.55
2022-12-08T05:27:46.047Z,19.85
2022-12-08T05:30:18.529Z,21.30
2022-12-08T05:32:53.512Z,20.60
2022-12-08T05:35:24.219Z,17.98
2022-12-08T05:37:53.942Z,15.30
2022-12-08T05:40:21.826Z,18.65
2022-12-08T05:42:49.726Z,27.45
2022-12-08T05:45:17.768Z,19.85
2022-12-08T05:47:45.914Z,16.38
2022-12-08T05:50:15.175Z,15.15
2022-12-08T05:52:43.089Z,18.73
2022-12-08T05:55:11.432Z,16.90
2022-12-08T05:57:39.325Z,17.40
2022-12-08T06:00:08.680Z,17.52
2022-12-08T06:02:36.723Z,18.65
2022-12-08T06:05:04.927Z,21.85
2022-12-08T06:07:34.217Z,16.73
2022-12-08T06:10:02.779Z,18.88
2022-12-08T06:12:31.025Z,22.88
2022-12-08T06:14:58.902Z,23.00
2022-12-08T06:17:26.769Z,15.95
2022-12-08T06:19:54.652Z,20.30
2022-12-08T06:22:22.674Z,19.83
2022-12-08T06:24:51.930Z,18.13
2022-12-08T06:27:19.953Z,17.48
2022-12-08T06:29:47.815Z,16.05
2022-12-08T06:32:15.760Z,19.75
2022-12-08T06:34:43.803Z,19.15
2022-12-08T06:37:11.769Z,16.90
2022-12-08T06:39:39.695Z,17.95
2022-12-08T06:42:26.817Z,18.88
2022-12-08T06:44:54.747Z,19.83
2022-12-08T06:47:26.155Z,14.85
2022-12-08T06:49:54.453Z,18.65
2022-12-08T06:52:22.394Z,18.30
2022-12-08T06:54:50.313Z,19.67
2022-12-08T06:57:19.635Z,17.98
2022-12-08T06:59:47.531Z,18.80
2022-12-08T07:02:15.514Z,18.50
2022-12-08T07:04:43.518Z,20.30
2022-12-08T07:07:11.618Z,17.85
2022-12-08T07:09:39.552Z,16.13
2022-12-08T07:12:07.772Z,18.33
2022-12-08T07:14:37.023Z,15.93
2022-12-08T07:17:05.013Z,15.57
2022-12-08T07:19:33.413Z,23.80
2022-12-08T07:22:01.368Z,18.80
2022-12-08T07:24:29.289Z,17.33
2022-12-08T07:26:57.284Z,21.30
2022-12-08T07:29:26.499Z,19.20
2022-12-08T07:31:55.936Z,17.60
2022-12-08T07:34:23.986Z,20.80
2022-12-08T07:36:51.906Z,20.98
2022-12-08T07:39:19.842Z,19.88
2022-12-08T07:41:47.780Z,18.13
2022-12-08T07:44:15.844Z,17.35
2022-12-08T07:46:43.771Z,18.10
2022-12-08T07:49:13.642Z,15.63
2022-12-08T07:51:41.521Z,12.60
2022-12-08T07:54:12.358Z,16.17
2022-12-08T07:56:40.478Z,14.88
2022-12-08T07:59:08.331Z,17.65
2022-12-08T08:01:36.524Z,15.70
2022-12-08T08:04:05.939Z,14.02
2022-12-08T08:06:36.331Z,16.42
2022-12-08T08:09:04.475Z,14.25
2022-12-08T08:11:32.522Z,15.73
2022-12-08T08:14:00.424Z,12.88
2022-12-08T08:16:31.039Z,13.48
2022-12-08T08:19:02.967Z,19.00
2022-12-08T08:21:46.687Z,24.58
2022-12-08T08:24:16.137Z,16.67
2022-12-08T08:26:44.084Z,17.75
2022-12-08T08:29:12.035Z,18.33
2022-12-08T08:31:40.055Z,18.88
2022-12-08T08:34:09.067Z,15.68
2022-12-08T08:36:37.066Z,13.15
2022-12-08T08:39:05.423Z,13.32
2022-12-08T08:41:35.368Z,13.85
2022-12-08T08:44:03.468Z,14.93
2022-12-08T08:46:31.927Z,16.17
2022-12-08T08:48:59.912Z,12.32
2022-12-08T08:51:27.899Z,13.35
2022-12-08T08:53:55.860Z,14.65
2022-12-08T08:56:24.253Z,13.95
2022-12-08T08:58:54.748Z,12.07
2022-12-08T09:01:25.820Z,10.75
2022-12-08T09:03:54.518Z,14.38
2022-12-08T09:06:22.989Z,14.98
2022-12-08T09:08:51.503Z,13.95
2022-12-08T09:11:19.581Z,14.25
2022-12-08T09:13:49.474Z,12.15
2022-12-08T09:16:19.768Z,10.75
2022-12-08T09:18:49.253Z,11.70
2022-12-08T09:21:22.413Z,12.57
2022-12-08T09:23:50.747Z,10.65
2022-12-08T09:26:22.227Z,14.82
2022-12-08T09:28:50.335Z,13.32
2022-12-08T09:31:21.505Z,14.25
2022-12-08T09:33:51.534Z,12.55
2022-12-08T09:36:19.526Z,11.05
2022-12-08T09:38:47.794Z,13.32
2022-12-08T09:41:18.641Z,13.93
2022-12-08T09:44:05.278Z,15.88
2022-12-08T09:46:35.677Z,14.85
2022-12-08T09:49:04.474Z,17.02
2022-12-08T09:51:37.410Z,11.75
2022-12-08T09:54:08.690Z,12.98
2022-12-08T09:56:38.558Z,10.13
2022-12-08T09:59:17.987Z,12.80
2022-12-08T10:01:47.380Z,14.40
2022-12-08T10:04:23.045Z,9.80
2022-12-08T10:07:02.423Z,10.07
2022-12-08T10:09:38.512Z,12.02
2022-12-08T10:12:15.807Z,11.57
2022-12-08T10:14:46.492Z,11.77
2022-12-08T10:17:22.993Z,9.30
2022-12-08T10:19:55.053Z,8.40
2022-12-08T10:22:25.070Z,9.65
2022-12-08T10:24:59.249Z,9.68
2022-12-08T10:27:27.479Z,11.07
2022-12-08T10:29:55.389Z,9.82
2022-12-08T10:32:29.581Z,9.90
2022-12-08T10:35:07.061Z,9.88
2022-12-08T10:37:35.183Z,7.88
2022-12-08T10:40:10.901Z,8.00
2022-12-08T10:42:41.740Z,7.25
2022-12-08T10:45:24.313Z,7.82
2022-12-08T10:48:01.624Z,8.55
2022-12-08T10:50:33.643Z,8.93
2022-12-08T10:53:03.883Z,6.55
2022-12-08T10:55:42.128Z,8.30
2022-12-08T10:58:25.762Z,10.00
2022-12-08T11:00:55.906Z,8.30
2022-12-08T11:03:30.158Z,6.05
2022-12-08T11:06:05.583Z,6.35
2022-12-08T11:08:48.109Z,6.70
2022-12-08T11:11:16.993Z,8.25
2022-12-08T11:13:45.198Z,8.23
2022-12-08T11:16:16.390Z,7.10
2022-12-08T11:18:48.123Z,7.22
2022-12-08T11:21:18.443Z,7.90
2022-12-08T11:23:49.397Z,5.63
2022-12-08T11:26:23.089Z,6.90
2022-12-08T11:28:50.964Z,8.02
2022-12-08T11:31:29.946Z,7.10
2022-12-08T11:33:59.386Z,11.25
2022-12-08T11:36:30.966Z,8.80
2022-12-08T11:39:01.487Z,9.95
2022-12-08T11:41:33.144Z,9.27
2022-12-08T11:44:08.738Z,10.75
2022-12-08T11:46:44.166Z,6.32
2022-12-08T11:49:15.215Z,12.45
2022-12-08T11:51:49.569Z,11.10
2022-12-08T11:54:23.442Z,8.02
2022-12-08T11:56:54.265Z,8.57
2022-12-08T11:59:29.565Z,10.55
2022-12-08T12:01:59.407Z,7.60
2022-12-08T12:04:33.156Z,9.60
2022-12-08T12:07:41.178Z,7.70
2022-12-08T12:10:36.629Z,7.72
2022-12-08T12:13:14.071Z,5.57
2022-12-08T12:16:11.861Z,7.00
2022-12-08T12:18:46.302Z,6.55
2022-12-08T12:21:20.217Z,6.90
2022-12-08T12:23:54.650Z,8.05
2022-12-08T12:26:24.821Z,8.95
2022-12-08T12:28:56.838Z,5.97
2022-12-08T12:31:27.477Z,7.25
2022-12-08T12:34:04.702Z,9.88
2022-12-08T12:36:45.026Z,6.28
2022-12-08T12:39:15.217Z,6.63
2022-12-08T12:41:47.701Z,7.13
2022-12-08T12:44:41.300Z,5.10
2022-12-08T12:47:35.548Z,6.88
2022-12-08T12:50:09.651Z,9.15
2022-12-08T12:52:39.485Z,5.82
2022-12-08T12:55:52.887Z,6.72
2022-12-08T12:58:42.901Z,6.95
2022-12-08T13:01:47.579Z,6.78
2022-12-08T13:04:16.290Z,8.30
2022-12-08T13:06:49.247Z,9.35
2022-12-08T13:09:28.336Z,7.45
2022-12-08T13:11:59.490Z,7.53
2022-12-08T13:14:34.221Z,10.32
2022-12-08T13:17:06.120Z,7.53
2022-12-08T13:19:37.631Z,8.98
2022-12-08T13:22:46.455Z,8.02
2022-12-08T13:25:57.958Z,8.60
2022-12-08T13:28:31.748Z,9.18
2022-12-08T13:31:01.943Z,8.02
2022-12-08T13:33:33.833Z,6.80
2022-12-08T13:36:19.517Z,10.00
2022-12-08T13:38:57.011Z,8.90
2022-12-08T13:41:33.277Z,9.47
2022-12-08T13:58:50.178Z,8.63
2022-12-08T14:01:22.414Z,10.70
2022-12-08T14:04:22.198Z,8.93
2022-12-08T14:06:46.740Z,7.85
2022-12-08T14:09:20.291Z,8.27
2022-12-08T14:11:55.991Z,9.60
2022-12-08T14:15:00.427Z,13.00
2022-12-08T14:17:19.338Z,11.02
2022-12-08T14:19:55.969Z,11.48
2022-12-08T14:22:25.348Z,7.68
2022-12-08T14:24:55.876Z,6.95
2022-12-08T14:27:31.396Z,8.75
2022-12-08T14:30:03.306Z,9.52
2022-12-08T14:32:34.221Z,8.45
2022-12-08T14:35:13.342Z,5.95
2022-12-08T14:37:45.549Z,7.55
2022-12-08T14:40:24.355Z,8.77
2022-12-08T14:43:00.502Z,6.82
2022-12-08T14:45:29.663Z,10.68
2022-12-08T14:48:00.537Z,6.45
2022-12-08T14:50:43.760Z,7.15
2022-12-08T14:53:15.929Z,8.25
2022-12-08T14:58:50.797Z,8.75
2022-12-08T15:01:24.698Z,7.78
2022-12-08T15:03:54.906Z,11.25
2022-12-08T15:06:23.463Z,7.28
2022-12-08T15:08:58.576Z,7.18
2022-12-08T15:11:32.979Z,7.78
2022-12-08T15:14:02.338Z,6.38
2022-12-08T15:16:38.577Z,11.55
2022-12-08T15:19:23.143Z,8.90
2022-12-08T15:21:51.997Z,8.55
2022-12-08T15:24:22.403Z,7.90
2022-12-08T15:26:51.938Z,9.25
2022-12-08T15:29:26.890Z,9.38
2022-12-08T15:31:57.165Z,11.30
2022-12-08T15:34:25.593Z,8.38
2022-12-08T15:36:55.413Z,9.65
2022-12-08T15:39:32.517Z,10.20
2022-12-08T15:42:02.213Z,10.30
2022-12-08T15:44:32.890Z,10.02
2022-12-08T15:47:01.736Z,13.75
2022-12-08T15:49:29.944Z,14.55
2022-12-08T15:52:08.064Z,9.65
2022-12-08T15:54:39.700Z,11.60
2022-12-08T15:57:20.109Z,11.52
2022-12-08T15:59:52.365Z,10.07
2022-12-08T16:02:22.781Z,11.02
2022-12-08T16:07:39.456Z,10.77
2022-12-08T16:10:09.457Z,11.32
2022-12-08T16:13:55.141Z,11.68
2022-12-08T16:15:55.080Z,12.40
2022-12-08T16:18:29.574Z,13.55
2022-12-08T16:21:09.564Z,10.32
2022-12-08T16:23:45.825Z,11.65
2022-12-08T16:26:28.487Z,11.85
2022-12-08T16:29:03.654Z,11.70
2022-12-08T16:31:33.324Z,15.63
2022-12-08T16:34:01.333Z,18.13
2022-12-08T16:36:29.280Z,28.30
2022-12-08T16:38:57.235Z,18.20
2022-12-08T16:41:42.529Z,16.15
2022-12-08T16:44:10.396Z,18.35
2022-12-08T16:46:39.901Z,13.32
2022-12-08T16:49:10.252Z,12.02
2022-12-08T16:51:38.222Z,11.27
2022-12-08T16:54:06.198Z,13.65
2022-12-08T16:56:34.155Z,11.85
2022-12-08T16:59:02.713Z,11.98
2022-12-08T17:01:30.775Z,12.25
2022-12-08T17:04:29.861Z,16.52
2022-12-08T17:06:50.809Z,13.75
2022-12-08T17:09:18.803Z,15.07
2022-12-08T17:11:46.723Z,18.08
2022-12-08T17:14:14.745Z,18.95
2022-12-08T17:16:43.381Z,14.07
2022-12-08T17:19:15.206Z,14.05
2022-12-08T17:21:43.295Z,12.73
2022-12-08T17:24:11.365Z,14.82
2022-12-08T17:26:39.302Z,13.45
2022-12-08T17:29:07.187Z,17.90
2022-12-08T17:31:35.310Z,16.45
2022-12-08T17:34:05.165Z,13.90
2022-12-08T17:36:34.410Z,10.50
2022-12-08T17:39:02.625Z,9.38
2022-12-08T17:41:31.314Z,13.75
2022-12-08T17:43:59.218Z,12.75
2022-12-08T17:46:27.220Z,10.43
2022-12-08T17:48:55.249Z,13.35
2022-12-08T17:51:23.219Z,15.02
2022-12-08T17:53:52.599Z,12.55
2022-12-08T17:56:22.136Z,11.90
2022-12-08T17:58:54.534Z,13.80
2022-12-08T18:01:23.606Z,9.70
2022-12-08T18:03:52.060Z,11.43
2022-12-08T18:06:20.424Z,11.43
2022-12-08T18:08:48.354Z,11.52
2022-12-08T18:11:20.501Z,9.85
2022-12-08T18:13:49.137Z,11.70
2022-12-08T18:16:18.176Z,10.48
2022-12-08T18:18:46.193Z,12.18
2022-12-08T18:21:17.376Z,14.43
2022-12-08T18:23:49.472Z,10.27
2022-12-08T18:26:18.899Z,8.15
2022-12-08T18:28:46.797Z,8.45
2022-12-08T18:31:18.183Z,10.48
2022-12-08T18:33:47.058Z,8.68
2022-12-08T18:36:17.740Z,10.40
2022-12-08T18:38:46.454Z,7.28
2022-12-08T18:41:16.086Z,10.38
2022-12-08T18:43:45.451Z,9.10
2022-12-08T18:46:15.780Z,9.05
2022-12-08T18:48:45.858Z,12.23
2022-12-08T18:51:15.567Z,10.20
2022-12-08T18:53:44.353Z,9.80
2022-12-08T18:56:22.290Z,15.85
2022-12-08T18:58:51.546Z,12.13
2022-12-08T19:01:19.856Z,10.18
2022-12-08T19:04:05.054Z,13.85
2022-12-08T19:06:38.219Z,12.13
2022-12-08T19:09:06.225Z,12.95
2022-12-08T19:11:34.495Z,11.40
2022-12-08T19:14:03.882Z,12.15
2022-12-08T19:16:32.224Z,16.52
2022-12-08T19:19:00.400Z,13.00
2022-12-08T19:21:28.529Z,12.90
2022-12-08T19:23:58.427Z,12.77
2022-12-08T19:26:27.166Z,12.80
2022-12-08T19:28:55.372Z,17.70
2022-12-08T19:31:24.889Z,12.70
2022-12-08T19:33:52.966Z,12.32
2022-12-08T19:36:23.053Z,14.85
2022-12-08T19:39:08.400Z,12.48
2022-12-08T19:41:55.346Z,12.30
2022-12-08T19:44:41.934Z,16.05
2022-12-08T19:47:11.299Z,19.80
2022-12-08T19:49:39.661Z,14.77
2022-12-08T19:52:08.127Z,15.05
2022-12-08T19:54:36.805Z,18.55
2022-12-08T19:57:04.969Z,13.60
2022-12-08T19:59:32.865Z,18.45
2022-12-08T20:02:01.232Z,13.88
2022-12-08T20:04:30.589Z,10.95
2022-12-08T20:06:58.893Z,11.18
2022-12-08T20:09:26.936Z,14.10
2022-12-08T20:11:55.598Z,10.23
2022-12-08T20:14:24.009Z,12.63
2022-12-08T20:16:52.223Z,11.90
2022-12-08T20:19:20.253Z,9.18
2022-12-08T20:21:49.822Z,13.70
2022-12-08T20:24:17.968Z,10.98
2022-12-08T20:26:45.868Z,11.63
2022-12-08T20:29:16.817Z,10.10
2022-12-08T20:31:44.979Z,12.40
2022-12-08T20:34:15.236Z,12.85
2022-12-08T20:36:43.225Z,11.27
2022-12-08T20:39:15.311Z,10.15
2022-12-08T20:41:44.363Z,10.82
2022-12-08T20:44:12.746Z,10.18
2022-12-08T20:46:44.933Z,15.27
2022-12-08T20:49:15.850Z,13.40
2022-12-08T20:51:44.428Z,12.23
2022-12-08T20:54:13.867Z,14.38
2022-12-08T20:56:48.067Z,13.02
2022-12-08T20:59:18.242Z,11.45
2022-12-08T21:01:46.479Z,14.15
2022-12-08T21:04:14.855Z,14.43
2022-12-08T21:06:43.100Z,13.82
2022-12-08T21:09:11.161Z,10.68
2022-12-08T21:11:40.951Z,12.07
2022-12-08T21:14:08.903Z,13.70
2022-12-08T21:16:37.554Z,15.30
2022-12-08T21:19:05.824Z,15.57
2022-12-08T21:21:33.836Z,12.07
2022-12-08T21:24:02.237Z,13.38
2022-12-08T21:26:30.639Z,17.15
2022-12-08T21:28:59.982Z,20.88
2022-12-08T21:31:32.188Z,17.98
2022-12-08T21:34:02.813Z,15.05
2022-12-08T21:36:31.073Z,41.22
2022-12-08T21:39:00.741Z,34.40
2022-12-08T21:41:46.494Z,33.80
2022-12-08T21:44:18.409Z,38.60
2022-12-08T21:46:47.092Z,33.80
2022-12-08T21:49:15.411Z,22.00
2022-12-08T21:51:43.517Z,21.55
2022-12-08T21:54:18.367Z,23.92
2022-12-08T21:56:48.026Z,18.20
2022-12-08T21:59:18.250Z,18.92
2022-12-08T22:01:46.433Z,16.33
2022-12-08T22:04:18.984Z,20.42
2022-12-08T22:06:47.193Z,16.23
2022-12-08T22:09:15.871Z,19.08
2022-12-08T22:11:44.864Z,19.35
2022-12-08T22:14:15.192Z,21.33
2022-12-08T22:16:44.985Z,23.55
2022-12-08T22:19:13.569Z,19.80
2022-12-08T22:21:41.741Z,14.60
2022-12-08T22:24:10.363Z,15.43
2022-12-08T22:26:38.583Z,19.10
2022-12-08T22:29:06.879Z,17.73
2022-12-08T22:31:35.070Z,12.35
2022-12-08T22:34:04.729Z,14.50
2022-12-08T22:36:32.899Z,16.73
2022-12-08T22:39:03.303Z,16.70
2022-12-08T22:41:31.369Z,16.83
2022-12-08T22:43:59.577Z,13.10
2022-12-08T22:46:28.614Z,14.25
2022-12-08T22:48:56.812Z,13.15
2022-12-08T22:51:26.354Z,18.83
2022-12-08T22:53:54.527Z,17.00
2022-12-08T22:56:22.854Z,13.80
2022-12-08T22:58:51.264Z,14.13
2022-12-08T23:01:24.564Z,18.90
2022-12-08T23:03:52.827Z,14.15
2022-12-08T23:06:21.101Z,18.17
2022-12-08T23:08:50.537Z,15.73
2022-12-08T23:11:18.678Z,18.60
2022-12-08T23:13:47.145Z,13.50
2022-12-08T23:16:15.608Z,18.38
2022-12-08T23:18:44.631Z,16.20
2022-12-08T23:21:14.914Z,16.98
2022-12-08T23:23:43.203Z,16.10
2022-12-08T23:26:20.803Z,16.63
2022-12-08T23:28:49.179Z,14.10
2022-12-08T23:31:18.259Z,15.50
2022-12-08T23:33:47.902Z,15.00
2022-12-08T23:36:23.934Z,16.65
2022-12-08T23:38:53.248Z,18.35
2022-12-08T23:41:26.620Z,15.43
2022-12-08T23:44:00.014Z,17.15
2022-12-08T23:46:32.722Z,16.75
2022-12-08T23:49:03.119Z,13.88
2022-12-08T23:51:37.333Z,13.75
2022-12-08T23:54:07.642Z,15.60
2022-12-08T23:56:40.906Z,17.10
2022-12-08T23:59:12.635Z,12.45
